Time;durP1;ratioP1;P1;durP2;ratioP2;P2;SDS_P1;SDS_P2;PMS_P1;PMS_P2;Temp;Humidity;BMP_temperature;BMP_pressure;BME280_temperature;BME280_humidity;BME280_pressure;Samples;Min_cycle;Max_cycle;Signal;HPM_P1;HPM_P2
2022/09/08 00:01:47;;;;;;;1999.90;999.90;;;20.70;99.90;;;;;;5027307;28;20357;-67
2022/09/08 00:04:13;;;;;;;1999.90;999.90;;;20.70;99.90;;;;;;5027194;28;20635;-66
2022/09/08 00:06:39;;;;;;;1999.90;999.90;;;20.70;99.90;;;;;;5026359;28;20170;-67
2022/09/08 00:09:05;;;;;;;1999.90;999.90;;;20.70;99.90;;;;;;5027519;28;20566;-66
2022/09/08 00:11:33;;;;;;;1999.90;999.90;;;20.60;99.90;;;;;;5028190;28;20174;-67
2022/09/08 00:14:04;;;;;;;1999.90;999.90;;;20.60;99.90;;;;;;5027816;28;20410;-67
2022/09/08 00:16:30;;;;;;;1999.90;999.90;;;20.50;99.90;;;;;;5027309;28;20422;-67
2022/09/08 00:18:55;;;;;;;1999.90;999.90;;;20.50;99.90;;;;;;5027381;28;20953;-67
2022/09/08 00:21:24;;;;;;;1999.90;999.90;;;20.40;99.90;;;;;;5019199;28;20414;-65
2022/09/08 00:23:50;;;;;;;1999.90;999.90;;;20.40;99.90;;;;;;5012187;28;20304;-65
2022/09/08 00:26:18;;;;;;;1999.90;999.90;;;20.50;99.90;;;;;;5011822;28;20404;-65
2022/09/08 00:28:44;;;;;;;1999.90;999.90;;;20.50;99.90;;;;;;5011971;28;20429;-66
2022/09/08 00:31:10;;;;;;;1999.90;999.90;;;20.60;99.90;;;;;;5012373;28;20384;-65
2022/09/08 00:33:36;;;;;;;1999.90;999.90;;;20.60;99.90;;;;;;5012390;28;20380;-66
2022/09/08 00:36:03;;;;;;;1999.90;999.90;;;20.60;99.90;;;;;;5011687;28;20443;-66
2022/09/08 00:38:33;;;;;;;1999.90;999.90;;;20.50;99.90;;;;;;5011986;28;20210;-65
2022/09/08 00:40:59;;;;;;;1999.90;999.90;;;20.50;99.90;;;;;;5012045;28;20389;-66
2022/09/08 00:43:40;;;;;;;1999.90;999.90;;;20.50;99.90;;;;;;5011997;28;20421;-65
2022/09/08 00:46:20;;;;;;;1999.90;999.90;;;20.40;99.90;;;;;;5011694;28;20563;-66
2022/09/08 00:49:16;;;;;;;1999.90;999.90;;;20.40;99.90;;;;;;5011895;28;20438;-65
2022/09/08 00:51:47;;;;;;;1999.90;999.90;;;20.40;99.90;;;;;;5011755;28;20419;-66
2022/09/08 00:54:15;;;;;;;1999.90;999.90;;;20.40;99.90;;;;;;5011997;28;20926;-66
2022/09/08 00:56:43;;;;;;;1999.90;999.90;;;20.40;99.90;;;;;;5011590;28;20441;-65
2022/09/08 00:59:09;;;;;;;1999.90;999.90;;;20.40;99.90;;;;;;5011840;28;20435;-65
2022/09/08 01:01:35;;;;;;;1999.90;999.90;;;20.40;99.90;;;;;;5015187;28;20756;-66
2022/09/08 01:04:04;;;;;;;1999.90;999.90;;;20.40;99.90;;;;;;5015548;28;20464;-65
2022/09/08 01:12:44;;;;;;;1999.90;999.90;;;20.60;99.90;;;;;;5011565;28;20403;-65
2022/09/08 01:15:12;;;;;;;1999.90;999.90;;;20.60;99.90;;;;;;5015375;28;20581;-65
2022/09/08 01:17:38;;;;;;;1999.90;999.90;;;20.60;99.90;;;;;;5014959;28;20443;-65
2022/09/08 01:20:08;;;;;;;1999.90;999.90;;;20.70;99.90;;;;;;5015321;28;20464;-65
2022/09/08 01:22:55;;;;;;;1999.90;999.90;;;20.70;99.90;;;;;;5015170;28;20768;-65
2022/09/08 01:25:42;;;;;;;1999.90;999.90;;;20.60;99.90;;;;;;5015166;28;20450;-65
2022/09/08 01:28:28;;;;;;;1999.90;999.90;;;20.70;99.90;;;;;;5014876;28;21002;-65
2022/09/08 01:30:54;;;;;;;1999.90;999.90;;;20.70;99.90;;;;;;5015105;28;20412;-65
2022/09/08 01:33:20;;;;;;;1999.90;999.90;;;20.70;99.90;;;;;;5015003;28;20451;-65
2022/09/08 01:35:46;;;;;;;1999.90;999.90;;;20.60;99.90;;;;;;5014928;28;20680;-66
2022/09/08 01:38:12;;;;;;;1999.90;999.90;;;20.60;99.90;;;;;;5014629;28;20915;-65
2022/09/08 01:40:38;;;;;;;1999.90;999.90;;;20.60;99.90;;;;;;5014954;28;20406;-65
2022/09/08 01:43:08;;;;;;;1999.90;999.90;;;20.60;99.90;;;;;;5014895;28;20261;-66
2022/09/08 01:45:35;;;;;;;1999.90;999.90;;;20.60;99.90;;;;;;5015032;28;20740;-66
2022/09/08 01:48:01;;;;;;;1999.90;999.90;;;20.60;99.90;;;;;;5014482;28;20437;-66
2022/09/08 01:50:26;;;;;;;1999.90;999.90;;;20.50;99.90;;;;;;5014720;28;20400;-65
2022/09/08 01:52:52;;;;;;;1999.90;999.90;;;20.50;99.90;;;;;;5014648;28;20410;-65
2022/09/08 01:55:18;;;;;;;1999.90;999.90;;;20.40;99.90;;;;;;5014595;28;20550;-66
2022/09/08 01:57:43;;;;;;;1999.90;999.90;;;20.40;99.90;;;;;;5014167;28;20569;-66
2022/09/08 02:00:10;;;;;;;1999.90;999.90;;;20.30;99.90;;;;;;5014518;28;20174;-65
2022/09/08 02:02:35;;;;;;;1999.90;999.90;;;20.30;99.90;;;;;;5014518;28;20591;-65
2022/09/08 02:05:01;;;;;;;1999.90;999.90;;;20.30;99.90;;;;;;5014437;28;20413;-66
2022/09/08 02:07:27;;;;;;;1999.90;999.90;;;20.20;99.90;;;;;;5013982;28;20291;-66
2022/09/08 02:09:53;;;;;;;1999.90;999.90;;;20.10;99.90;;;;;;5014396;28;20189;-66
2022/09/08 02:12:19;;;;;;;1999.90;999.90;;;20.10;99.90;;;;;;5014125;28;21033;-66
2022/09/08 02:14:44;;;;;;;1999.90;999.90;;;20.00;99.90;;;;;;5014176;28;20202;-66
2022/09/08 02:17:10;;;;;;;1999.90;999.90;;;20.10;99.90;;;;;;5013838;28;20458;-65
2022/09/08 02:19:36;;;;;;;1999.90;999.90;;;20.10;99.90;;;;;;5014191;28;20170;-65
2022/09/08 02:22:01;;;;;;;1999.90;999.90;;;20.00;99.90;;;;;;5014157;28;20170;-65
2022/09/08 02:24:27;;;;;;;1999.90;999.90;;;20.00;99.90;;;;;;5014085;28;20728;-66
2022/09/08 02:26:53;;;;;;;1999.90;999.90;;;19.90;99.90;;;;;;5013771;28;20173;-65
2022/09/08 02:29:19;;;;;;;1999.90;999.90;;;19.90;99.90;;;;;;5013913;28;20584;-66
2022/09/08 02:31:44;;;;;;;1999.90;999.90;;;19.90;99.90;;;;;;5013963;28;20413;-65
2022/09/08 02:34:10;;;;;;;1999.90;999.90;;;19.90;99.90;;;;;;5013786;28;20686;-66
2022/09/08 02:36:36;;;;;;;1999.90;999.90;;;19.70;99.90;;;;;;5013672;28;20181;-65
2022/09/08 02:39:01;;;;;;;1999.90;999.90;;;19.60;99.90;;;;;;5013802;28;20187;-65
2022/09/08 02:41:28;;;;;;;1999.90;999.90;;;19.40;99.90;;;;;;5013795;28;20669;-65
2022/09/08 02:43:54;;;;;;;1999.90;999.90;;;19.40;99.90;;;;;;5013701;28;20173;-65
2022/09/08 02:46:20;;;;;;;1999.90;999.90;;;19.30;99.90;;;;;;5013604;28;20806;-65
2022/09/08 02:48:46;;;;;;;1999.90;999.90;;;19.20;99.90;;;;;;5013656;28;20437;-65
2022/09/08 02:51:14;;;;;;;1999.90;999.90;;;19.10;99.90;;;;;;5013651;28;20448;-65
2022/09/08 02:53:40;;;;;;;1999.90;999.90;;;19.10;99.90;;;;;;5013558;28;20416;-65
2022/09/08 02:56:07;;;;;;;1999.90;999.90;;;19.10;99.90;;;;;;5013058;28;20491;-65
2022/09/08 02:58:33;;;;;;;1999.90;999.90;;;19.10;99.90;;;;;;5013552;28;20444;-66
2022/09/08 03:01:00;;;;;;;1999.90;999.90;;;19.10;99.90;;;;;;5013425;28;20756;-65
2022/09/08 03:03:26;;;;;;;1999.90;999.90;;;19.00;99.90;;;;;;5013425;28;20415;-65
2022/09/08 03:05:52;;;;;;;1999.90;999.90;;;19.00;99.90;;;;;;5013167;28;20478;-65
2022/09/08 03:08:19;;;;;;;1999.90;999.90;;;19.00;99.90;;;;;;5052750;23;20307;-67
2022/09/08 03:10:45;;;;;;;1999.90;999.90;;;18.90;99.90;;;;;;5012997;28;20442;-68
2022/09/08 03:13:11;;;;;;;1999.90;999.90;;;18.80;99.90;;;;;;5013371;28;20433;-68
2022/09/08 03:15:37;;;;;;;1999.90;999.90;;;18.80;99.90;;;;;;5013011;28;20253;-67
2022/09/08 03:18:04;;;;;;;1999.90;999.90;;;18.80;99.90;;;;;;5018943;28;20477;-67
2022/09/08 03:20:34;;;;;;;1999.90;999.90;;;18.80;99.90;;;;;;5032915;28;20395;-67
2022/09/08 03:23:01;;;;;;;1999.90;999.90;;;18.70;99.90;;;;;;5032155;28;20901;-66
2022/09/08 03:25:26;;;;;;;1999.90;999.90;;;18.70;99.90;;;;;;5032689;28;20499;-65
2022/09/08 03:27:52;;;;;;;1999.90;999.90;;;18.80;99.90;;;;;;5032308;28;20525;-66
2022/09/08 03:30:18;;;;;;;1999.90;999.90;;;18.70;99.90;;;;;;5032703;28;20180;-65
2022/09/08 03:32:45;;;;;;;1999.90;999.90;;;18.70;99.90;;;;;;5032570;28;20179;-66
2022/09/08 03:35:12;;;;;;;1999.90;999.90;;;18.80;99.90;;;;;;5032489;28;20444;-67
2022/09/08 03:37:38;;;;;;;1999.90;999.90;;;18.70;99.90;;;;;;5032203;28;20421;-66
2022/09/08 03:40:05;;;;;;;1999.90;999.90;;;18.70;99.90;;;;;;5032437;28;20407;-66
2022/09/08 03:42:35;;;;;;;1999.90;999.90;;;18.70;99.90;;;;;;5032482;28;20450;-67
2022/09/08 03:45:01;;;;;;;1999.90;999.90;;;18.70;99.90;;;;;;5032421;28;20621;-66
2022/09/08 03:47:27;;;;;;;1999.90;999.90;;;18.70;99.90;;;;;;5032259;28;20992;-70
2022/09/08 03:49:53;;;;;;;1999.90;999.90;;;18.70;99.90;;;;;;5032412;28;20501;-67
2022/09/08 03:52:18;;;;;;;1999.90;999.90;;;18.70;99.90;;;;;;5032286;28;20171;-67
2022/09/08 03:54:47;;;;;;;1999.90;999.90;;;18.70;99.90;;;;;;5032343;28;20705;-67
2022/09/08 03:57:13;;;;;;;1999.90;999.90;;;18.70;99.90;;;;;;5031952;28;20160;-67
2022/09/08 03:59:39;;;;;;;1999.90;999.90;;;18.70;99.90;;;;;;5032236;28;20493;-67
2022/09/08 04:02:04;;;;;;;1999.90;999.90;;;18.70;99.90;;;;;;5032080;28;20406;-67
2022/09/08 04:04:30;;;;;;;1999.90;999.90;;;18.70;99.90;;;;;;5032102;28;20181;-67
2022/09/08 04:06:57;;;;;;;1999.90;999.90;;;18.80;99.90;;;;;;5031694;28;20178;-67
2022/09/08 04:09:22;;;;;;;1999.90;999.90;;;18.70;99.90;;;;;;5031929;28;20959;-65
2022/09/08 04:11:48;;;;;;;1999.90;999.90;;;18.70;99.90;;;;;;5032046;28;20406;-69
2022/09/08 04:14:14;;;;;;;1999.90;999.90;;;18.70;99.90;;;;;;5031913;28;20178;-65
2022/09/08 04:16:40;;;;;;;1999.90;999.90;;;18.70;99.90;;;;;;5031679;28;20635;-68
2022/09/08 04:19:06;;;;;;;1999.90;999.90;;;18.70;99.90;;;;;;5031962;28;20462;-65
2022/09/08 04:21:32;;;;;;;1999.90;999.90;;;18.70;99.90;;;;;;5031866;28;20161;-65
2022/09/08 04:23:59;;;;;;;1999.90;999.90;;;18.60;99.90;;;;;;5031907;28;20431;-65
2022/09/08 04:26:26;;;;;;;1999.90;999.90;;;18.60;99.90;;;;;;5031674;28;20164;-68
2022/09/08 04:28:52;;;;;;;1999.90;999.90;;;18.70;99.90;;;;;;5031795;28;20791;-66
2022/09/08 04:31:18;;;;;;;1999.90;999.90;;;18.60;99.90;;;;;;5031806;28;20401;-66
2022/09/08 04:33:43;;;;;;;1999.90;999.90;;;18.60;99.90;;;;;;5032379;28;20404;-65
2022/09/08 04:36:15;;;;;;;1999.90;999.90;;;18.70;99.90;;;;;;5035408;28;20472;-66
2022/09/08 04:38:41;;;;;;;1999.90;999.90;;;18.70;99.90;;;;;;5035707;28;20717;-67
2022/09/08 04:41:09;;;;;;;1999.90;999.90;;;18.70;99.90;;;;;;5035804;28;20413;-70
2022/09/08 04:43:35;;;;;;;1999.90;999.90;;;18.70;99.90;;;;;;5035808;28;20431;-66
2022/09/08 04:46:06;;;;;;;1999.90;999.90;;;18.70;99.90;;;;;;5035379;28;20441;-66
2022/09/08 04:48:33;;;;;;;1999.90;999.90;;;18.70;99.90;;;;;;5035540;28;20437;-67
2022/09/08 04:50:59;;;;;;;1999.90;999.90;;;18.60;99.90;;;;;;5035667;28;20406;-67
2022/09/08 04:53:26;;;;;;;1999.90;999.90;;;18.50;99.90;;;;;;5035584;28;20458;-66
2022/09/08 04:55:53;;;;;;;1999.90;999.90;;;18.40;99.90;;;;;;5035387;28;20506;-67
2022/09/08 04:58:19;;;;;;;1999.90;999.90;;;18.40;99.90;;;;;;5035251;28;20431;-69
2022/09/08 05:00:44;;;;;;;1999.90;999.90;;;18.40;99.90;;;;;;5035421;28;20414;-68
2022/09/08 05:03:11;;;;;;;1999.90;999.90;;;18.40;99.90;;;;;;5035385;28;20910;-67
2022/09/08 05:05:37;;;;;;;1999.90;999.90;;;18.40;99.90;;;;;;5035388;28;20259;-66
2022/09/08 05:08:03;;;;;;;1999.90;999.90;;;18.30;99.90;;;;;;5034889;28;20454;-66
2022/09/08 05:10:31;;;;;;;1999.90;999.90;;;18.20;99.90;;;;;;5035268;28;20430;-67
2022/09/08 05:12:57;;;;;;;1999.90;999.90;;;18.10;99.90;;;;;;5035210;28;20501;-68
2022/09/08 05:15:23;;;;;;;1999.90;999.90;;;18.10;99.90;;;;;;5035064;28;20476;-68
2022/09/08 05:17:49;;;;;;;1999.90;999.90;;;17.90;99.90;;;;;;5034707;28;20445;-68
2022/09/08 05:20:14;;;;;;;1999.90;999.90;;;17.80;99.90;;;;;;5035083;28;20173;-68
2022/09/08 05:22:40;;;;;;;1999.90;999.90;;;17.80;99.90;;;;;;5035065;28;20167;-67
2022/09/08 05:25:06;;;;;;;1999.90;999.90;;;17.80;99.90;;;;;;5034983;28;20180;-67
2022/09/08 05:27:32;;;;;;;1999.90;999.90;;;17.80;99.90;;;;;;5034548;28;20174;-67
2022/09/08 05:29:58;;;;;;;1999.90;999.90;;;17.70;99.90;;;;;;5035213;28;20410;-67
2022/09/08 05:32:24;;;;;;;1999.90;999.90;;;17.70;99.90;;;;;;5034792;28;20173;-68
2022/09/08 05:34:49;;;;;;;1999.90;999.90;;;17.70;99.90;;;;;;5034968;28;20204;-68
2022/09/08 05:37:15;;;;;;;1999.90;999.90;;;17.70;99.90;;;;;;5034502;28;20403;-67
2022/09/08 05:39:40;;;;;;;1999.90;999.90;;;17.70;99.90;;;;;;5034736;28;20223;-68
2022/09/08 05:42:06;;;;;;;1999.90;999.90;;;17.70;99.90;;;;;;5034697;28;20215;-67
2022/09/08 05:44:32;;;;;;;1999.90;999.90;;;17.70;99.90;;;;;;5034599;28;20556;-68
2022/09/08 05:46:57;;;;;;;1999.90;999.90;;;17.70;99.90;;;;;;5033633;28;20168;-68
2022/09/08 05:49:23;;;;;;;1999.90;999.90;;;17.80;99.90;;;;;;5034443;28;20521;-68
2022/09/08 05:51:52;;;;;;;1999.90;999.90;;;17.90;99.90;;;;;;5016775;28;20167;-67
2022/09/08 05:54:21;;;;;;;1999.90;999.90;;;17.90;99.90;;;;;;5034531;28;20221;-67
2022/09/08 05:56:47;;;;;;;1999.90;999.90;;;18.00;99.90;;;;;;5034159;28;20399;-68
2022/09/08 05:59:13;;;;;;;1999.90;999.90;;;18.10;99.90;;;;;;5034275;28;20821;-68
2022/09/08 06:01:38;;;;;;;1999.90;999.90;;;18.10;99.90;;;;;;5034278;28;20165;-67
2022/09/08 06:04:04;;;;;;;1999.90;999.90;;;18.00;99.90;;;;;;5034246;28;20167;-65
2022/09/08 06:06:31;;;;;;;1999.90;999.90;;;18.00;99.90;;;;;;5034019;28;20199;-67
2022/09/08 06:09:01;;;;;;;1999.90;999.90;;;18.00;99.90;;;;;;5034075;28;20198;-68
2022/09/08 06:11:28;;;;;;;1999.90;999.90;;;18.00;99.90;;;;;;5034321;28;20423;-68
2022/09/08 06:13:55;;;;;;;1999.90;999.90;;;17.90;99.90;;;;;;5034122;28;20498;-66
2022/09/08 06:16:21;;;;;;;1999.90;999.90;;;17.80;99.90;;;;;;5033724;28;20461;-67
2022/09/08 06:18:47;;;;;;;1999.90;999.90;;;17.80;99.90;;;;;;5034001;28;20505;-67
2022/09/08 06:21:24;;;;;;;1999.90;999.90;;;17.80;99.90;;;;;;5033965;28;20403;-67
2022/09/08 06:23:56;;;;;;;1999.90;999.90;;;17.80;99.90;;;;;;5034018;28;20483;-67
2022/09/08 06:26:58;;;;;;;1999.90;999.90;;;17.80;99.90;;;;;;5033562;28;20417;-67
2022/09/08 06:29:24;;;;;;;1999.90;999.90;;;17.80;99.90;;;;;;5009008;28;20515;-66
2022/09/08 06:32:22;;;;;;;1999.90;999.90;;;17.80;99.90;;;;;;5033750;28;20496;-69
2022/09/08 06:35:30;;;;;;;1999.90;999.90;;;17.60;99.90;;;;;;5002934;28;20204;-69
2022/09/08 06:37:59;;;;;;;1999.90;999.90;;;17.50;99.90;;;;;;5015687;28;20501;-66
2022/09/08 06:40:35;;;;;;;1999.90;999.90;;;17.50;99.90;;;;;;5033551;28;20967;-66
2022/09/08 06:43:13;;;;;;;1999.90;999.90;;;17.40;99.90;;;;;;5033571;28;20414;-66
2022/09/08 06:45:59;;;;;;;1999.90;999.90;;;17.40;99.90;;;;;;5033509;28;20413;-66
2022/09/08 06:48:37;;;;;;;1999.90;999.90;;;17.30;99.90;;;;;;5033437;28;20426;-66
2022/09/08 06:51:26;;;;;;;1999.90;999.90;;;17.30;99.90;;;;;;5033310;28;20414;-66
2022/09/08 06:53:54;;;;;;;1999.90;999.90;;;17.30;99.90;;;;;;5033367;28;20497;-69
2022/09/08 06:56:39;;;;;;;1999.90;999.90;;;17.20;99.90;;;;;;5032910;28;20458;-66
2022/09/08 06:59:15;;;;;;;1999.90;999.90;;;17.10;99.90;;;;;;5032334;28;20418;-67
2022/09/08 07:02:07;;;;;;;1999.90;999.90;;;17.10;99.90;;;;;;5033287;28;20390;-67
2022/09/08 07:04:53;;;;;;;1999.90;999.90;;;17.00;99.90;;;;;;5033127;28;20405;-67
2022/09/08 07:07:31;;;;;;;1999.90;999.90;;;16.80;99.90;;;;;;5032846;28;20765;-67
2022/09/08 07:10:24;;;;;;;1999.90;999.90;;;16.70;99.90;;;;;;5033086;28;20431;-67
2022/09/08 07:12:50;;;;;;;1999.90;999.90;;;16.60;99.90;;;;;;5023192;28;20432;-67
2022/09/08 07:15:27;;;;;;;1999.90;999.90;;;16.50;99.90;;;;;;5032847;28;20964;-67
2022/09/08 07:18:16;;;;;;;1999.90;999.90;;;16.50;99.90;;;;;;5032653;28;20602;-68
2022/09/08 07:20:42;;;;;;;1999.90;999.90;;;16.40;99.90;;;;;;5032832;28;20418;-67
2022/09/08 07:23:15;;;;;;;1999.90;999.90;;;16.40;99.90;;;;;;5032811;28;20887;-66
2022/09/08 07:25:47;;;;;;;1999.90;999.90;;;16.50;99.90;;;;;;5032867;28;20177;-67
2022/09/08 07:28:19;;;;;;;1999.90;999.90;;;16.50;99.90;;;;;;5032421;28;20951;-69
2022/09/08 07:30:52;;;;;;;1999.90;999.90;;;16.50;99.90;;;;;;5032675;28;20408;-69
2022/09/08 07:33:22;;;;;;;1999.90;999.90;;;16.50;99.90;;;;;;5032622;28;20483;-67
2022/09/08 07:36:00;;;;;;;1999.90;999.90;;;16.60;99.90;;;;;;5032633;28;20457;-68
2022/09/08 07:38:57;;;;;;;1999.90;999.90;;;16.70;99.90;;;;;;5032442;28;20432;-66
2022/09/08 07:41:50;;;;;;;1999.90;999.90;;;16.70;99.90;;;;;;5016299;28;20416;-66
2022/09/08 07:44:19;;;;;;;1999.90;999.90;;;16.70;99.90;;;;;;5032436;28;20912;-66
2022/09/08 07:47:12;;;;;;;1999.90;999.90;;;16.70;99.90;;;;;;5032155;28;20437;-65
2022/09/08 07:49:50;;;;;;;1999.90;999.90;;;16.70;99.90;;;;;;5032296;28;20418;-66
2022/09/08 07:52:33;;;;;;;1999.90;999.90;;;16.70;99.90;;;;;;5032240;28;20394;-69
2022/09/08 07:55:10;;;;;;;1999.90;999.90;;;16.80;99.90;;;;;;5032159;28;20476;-65
2022/09/08 07:57:52;;;;;;;1999.90;999.90;;;16.90;99.90;;;;;;5031921;28;20402;-68
2022/09/08 08:00:41;;;;;;;1999.90;999.90;;;17.00;99.90;;;;;;5014679;28;20446;-67
2022/09/08 08:03:35;;;;;;;1999.90;999.90;;;17.10;99.90;;;;;;5012519;28;20431;-67
2022/09/08 08:06:04;;;;;;;1999.90;999.90;;;17.30;99.90;;;;;;5012092;28;20977;-66
2022/09/08 08:08:45;;;;;;;1999.90;999.90;;;17.40;99.90;;;;;;5011806;28;20822;-68
2022/09/08 08:11:26;;;;;;;1999.90;999.90;;;17.50;99.90;;;;;;5012218;28;20413;-66
2022/09/08 08:14:24;;;;;;;1999.90;999.90;;;17.60;99.90;;;;;;5012328;28;20493;-65
2022/09/08 08:16:59;;;;;;;1999.90;999.90;;;17.70;99.90;;;;;;5012011;28;20444;-65
2022/09/08 08:19:31;;;;;;;1999.90;999.90;;;17.80;99.90;;;;;;5012124;28;20518;-66
2022/09/08 08:22:14;;;;;;;1999.90;999.90;;;17.90;99.90;;;;;;5012195;28;20413;-66
2022/09/08 08:24:48;;;;;;;1999.90;999.90;;;18.10;99.90;;;;;;5012160;28;20491;-65
2022/09/08 08:27:33;;;;;;;1999.90;999.90;;;18.30;99.90;;;;;;5011906;28;20505;-66
2022/09/08 08:30:19;;;;;;;1999.90;999.90;;;18.30;99.90;;;;;;5012131;28;20410;-67
2022/09/08 08:32:53;;;;;;;1999.90;999.90;;;18.30;99.90;;;;;;5010929;28;20410;-67
2022/09/08 08:35:18;;;;;;;1999.90;999.90;;;18.30;99.90;;;;;;5030788;28;20497;-67
2022/09/08 08:37:47;;;;;;;1999.90;999.90;;;18.20;99.90;;;;;;5030554;28;20424;-65
2022/09/08 08:40:33;;;;;;;1999.90;999.90;;;18.20;99.90;;;;;;5030389;28;20159;-65
2022/09/08 08:43:27;;;;;;;1999.90;999.90;;;18.30;99.90;;;;;;5030986;28;20436;-66
2022/09/08 08:46:12;;;;;;;1999.90;999.90;;;18.50;99.90;;;;;;5020073;28;20426;-65
2022/09/08 08:48:52;;;;;;;1999.90;999.90;;;18.50;99.90;;;;;;5030408;28;20908;-66
2022/09/08 08:51:33;;;;;;;1999.90;999.90;;;18.50;99.90;;;;;;5030777;28;20403;-65
2022/09/08 08:54:24;;;;;;;1999.90;999.90;;;18.50;99.90;;;;;;5030619;28;20408;-65
2022/09/08 08:57:26;;;;;;;1999.90;999.90;;;18.50;99.90;;;;;;5031131;28;20852;-65
2022/09/08 09:00:21;;;;;;;1999.90;999.90;;;18.50;99.90;;;;;;5030785;28;20402;-65
2022/09/08 09:03:20;;;;;;;1999.90;999.90;;;18.50;99.90;;;;;;5030350;28;20411;-66
2022/09/08 09:06:20;;;;;;;1999.90;999.90;;;18.50;99.90;;;;;;5031144;28;20405;-66
2022/09/08 09:09:03;;;;;;;1999.90;999.90;;;18.50;99.90;;;;;;5030449;28;20443;-66
2022/09/08 09:11:50;;;;;;;1999.90;999.90;;;18.60;99.90;;;;;;5030847;28;20392;-66
2022/09/08 09:14:31;;;;;;;1999.90;999.90;;;18.50;99.90;;;;;;5030607;28;20399;-66
2022/09/08 09:17:34;;;;;;;1999.90;999.90;;;18.60;99.90;;;;;;5030293;28;20410;-64
2022/09/08 09:20:21;;;;;;;1999.90;999.90;;;18.70;99.90;;;;;;5030880;28;20398;-66
2022/09/08 09:22:52;;;;;;;1999.90;999.90;;;18.80;99.90;;;;;;5034528;28;20451;-66
2022/09/08 09:25:23;;;;;;;1999.90;999.90;;;18.90;99.90;;;;;;5034200;28;20401;-66
2022/09/08 09:28:00;;;;;;;1999.90;999.90;;;19.00;99.90;;;;;;5034191;28;20952;-66
2022/09/08 09:31:07;;;;;;;1999.90;999.90;;;19.00;99.90;;;;;;5033920;28;20419;-65
2022/09/08 09:33:51;;;;;;;1999.90;999.90;;;19.00;99.90;;;;;;5033656;28;20402;-64
2022/09/08 09:36:44;;;;;;;1999.90;999.90;;;19.20;99.90;;;;;;5033961;28;20444;-65
2022/09/08 09:39:10;;;;;;;1999.90;999.90;;;19.30;99.90;;;;;;5033581;28;21230;-65
2022/09/08 09:41:47;;;;;;;1999.90;999.90;;;19.40;99.90;;;;;;5034155;28;20389;-65
2022/09/08 09:44:36;;;;;;;1999.90;999.90;;;19.50;99.90;;;;;;5034228;28;20167;-66
2022/09/08 09:47:28;;;;;;;1999.90;999.90;;;19.70;99.90;;;;;;5033623;28;20431;-65
2022/09/08 09:50:12;;;;;;;1999.90;999.90;;;19.80;99.90;;;;;;5030100;28;20785;-66
2022/09/08 09:53:02;;;;;;;1999.90;999.90;;;19.80;99.90;;;;;;5033765;28;20486;-66
2022/09/08 09:55:39;;;;;;;1999.90;999.90;;;19.90;99.90;;;;;;5024973;28;20904;-65
2022/09/08 09:58:41;;;;;;;1999.90;999.90;;;20.00;99.90;;;;;;5013955;28;20823;-65
2022/09/08 10:01:07;;;;;;;1999.90;999.90;;;20.00;99.90;;;;;;5013587;28;20378;-65
2022/09/08 10:03:35;;;;;;;1999.90;999.90;;;20.10;99.90;;;;;;5014113;28;20409;-67
2022/09/08 10:06:19;;;;;;;1999.90;999.90;;;20.10;99.90;;;;;;5013939;28;20201;-65
2022/09/08 10:08:54;;;;;;;1999.90;999.90;;;20.20;99.90;;;;;;5013314;28;20533;-65
2022/09/08 10:11:38;;;;;;;1999.90;999.90;;;20.40;99.90;;;;;;5013766;28;20453;-66
2022/09/08 10:14:13;;;;;;;1999.90;999.90;;;20.50;99.90;;;;;;5013524;28;20468;-64
2022/09/08 10:17:10;;;;;;;1999.90;999.90;;;20.50;99.90;;;;;;5013271;28;20413;-64
2022/09/08 10:19:39;;;;;;;1999.90;999.90;;;20.50;99.90;;;;;;5013743;28;20518;-65
2022/09/08 10:22:31;;;;;;;1999.90;999.90;;;20.40;99.90;;;;;;5013647;28;20850;-66
2022/09/08 10:25:21;;;;;;;1999.90;999.90;;;20.40;99.90;;;;;;5013325;28;21043;-65
2022/09/08 10:28:08;;;;;;;1999.90;999.90;;;20.40;99.90;;;;;;5013160;28;21103;-65
2022/09/08 10:30:56;;;;;;;1999.90;999.90;;;20.50;99.90;;;;;;5012757;28;20436;-65
2022/09/08 10:33:21;;;;;;;1999.90;999.90;;;20.50;99.90;;;;;;5013545;28;20505;-64
2022/09/08 10:35:51;;;;;;;1999.90;999.90;;;20.50;99.90;;;;;;5013599;28;20527;-65
2022/09/08 10:38:56;;;;;;;1999.90;999.90;;;20.60;99.90;;;;;;5012759;28;20967;-65
2022/09/08 10:41:40;;;;;;;1999.90;999.90;;;20.70;99.90;;;;;;5013411;28;20402;-65
2022/09/08 10:44:21;;;;;;;1999.90;999.90;;;21.00;99.90;;;;;;5013421;28;20400;-66
2022/09/08 10:47:16;;;;;;;1999.90;999.90;;;21.20;99.90;;;;;;5012711;28;20387;-65
2022/09/08 10:50:17;;;;;;;1999.90;999.90;;;21.50;99.90;;;;;;4942769;28;20469;-64
2022/09/08 10:52:49;;;;;;;1999.90;999.90;;;21.50;99.90;;;;;;5013131;28;20437;-66
2022/09/08 10:55:42;;;;;;;1999.90;999.90;;;21.10;99.90;;;;;;5013058;28;20422;-65
2022/09/08 10:58:45;;;;;;;1999.90;999.90;;;20.80;99.90;;;;;;5012809;28;20417;-65
2022/09/08 11:01:45;;;;;;;1999.90;999.90;;;20.50;99.90;;;;;;5012701;28;20430;-66
2022/09/08 11:04:29;;;;;;;1999.90;999.90;;;20.60;99.90;;;;;;4969043;28;20424;-65
2022/09/08 11:07:14;;;;;;;1999.90;999.90;;;20.70;99.90;;;;;;4994998;28;20441;-65
2022/09/08 11:09:58;;;;;;;1999.90;999.90;;;21.00;99.90;;;;;;5012130;28;20452;-64
2022/09/08 11:12:44;;;;;;;1999.90;999.90;;;21.50;99.90;;;;;;5012949;28;20396;-65
2022/09/08 11:15:27;;;;;;;1999.90;999.90;;;21.70;99.90;;;;;;5012297;28;20504;-65
2022/09/08 11:18:09;;;;;;;1999.90;999.90;;;21.80;99.90;;;;;;5012289;28;20429;-65
2022/09/08 11:20:46;;;;;;;1999.90;999.90;;;21.80;99.90;;;;;;5012685;28;20391;-65
2022/09/08 11:23:18;;;;;;;1999.90;999.90;;;21.60;99.90;;;;;;5012240;28;20898;-65
2022/09/08 11:26:02;;;;;;;1999.90;999.90;;;21.30;99.90;;;;;;5012458;28;20401;-65
2022/09/08 11:28:46;;;;;;;1999.90;999.90;;;21.00;99.90;;;;;;5012580;28;20423;-65
2022/09/08 11:31:39;;;;;;;1999.90;999.90;;;20.90;99.90;;;;;;5012135;28;20847;-65
2022/09/08 11:34:15;;;;;;;1999.90;999.90;;;21.00;99.90;;;;;;5012601;28;20420;-65
2022/09/08 11:37:18;;;;;;;1999.90;999.90;;;21.10;99.90;;;;;;5012228;28;20410;-65
2022/09/08 11:39:56;;;;;;;1999.90;999.90;;;21.30;99.90;;;;;;5012155;28;20398;-65
2022/09/08 11:42:55;;;;;;;1999.90;999.90;;;21.40;99.90;;;;;;5012482;28;20413;-65
2022/09/08 11:45:52;;;;;;;1999.90;999.90;;;21.50;99.90;;;;;;5011256;28;20369;-65
2022/09/08 11:48:49;;;;;;;1999.90;999.90;;;22.00;99.90;;;;;;5012187;28;20426;-65
2022/09/08 11:51:23;;;;;;;1999.90;999.90;;;22.50;99.90;;;;;;5012285;28;20784;-65
2022/09/08 11:54:06;;;;;;;1999.90;999.90;;;23.20;99.90;;;;;;5011465;28;20740;-65
2022/09/08 11:57:20;;;;;;;1999.90;999.90;;;23.80;99.90;;;;;;5012006;28;20533;-64
2022/09/08 12:00:03;;;;;;;1999.90;999.90;;;24.40;99.90;;;;;;4951866;28;20896;-67
2022/09/08 12:02:46;;;;;;;1999.90;999.90;;;25.20;99.90;;;;;;5012115;28;20937;-64
2022/09/08 12:05:21;;;;;;;1999.90;999.90;;;25.60;99.90;;;;;;5011998;28;20486;-65
2022/09/08 12:08:14;;;;;;;1999.90;999.90;;;25.60;99.90;;;;;;5010966;28;20534;-65
2022/09/08 12:10:58;;;;;;;1999.90;999.90;;;25.40;95.40;;;;;;5012020;28;20411;-65
2022/09/08 12:13:37;;;;;;;1999.90;999.90;;;25.60;93.10;;;;;;5012003;28;20495;-65
2022/09/08 12:16:28;;;;;;;1999.90;999.90;;;25.90;92.40;;;;;;5011166;28;20426;-65
2022/09/08 12:19:20;;;;;;;1999.90;999.90;;;26.20;89.70;;;;;;5011779;28;20402;-66
2022/09/08 12:22:23;;;;;;;1999.90;999.90;;;26.30;85.40;;;;;;5011402;28;20500;-64
2022/09/08 12:25:26;;;;;;;1999.90;999.90;;;26.50;77.20;;;;;;5011759;28;20374;-64
2022/09/08 12:28:16;;;;;;;1999.90;999.90;;;26.80;74.30;;;;;;5011576;28;20403;-65
2022/09/08 12:31:00;;;;;;;1999.90;999.90;;;26.90;70.40;;;;;;5011336;28;20414;-65
2022/09/08 12:33:34;;;;;;;1999.90;999.90;;;27.00;75.60;;;;;;5011733;28;20494;-65
2022/09/08 12:36:35;;;;;;;1999.90;999.90;;;27.10;65.20;;;;;;5011284;28;20421;-65
2022/09/08 12:39:53;;;;;;;1999.90;999.90;;;27.40;63.80;;;;;;5011799;28;20474;-66
2022/09/08 12:42:28;;;;;;;1999.90;999.90;;;27.50;63.70;;;;;;5011400;28;20439;-65
2022/09/08 12:44:59;;;;;;;1999.90;999.90;;;27.70;60.20;;;;;;5011227;28;20462;-64